.
WxDataArchive / Data Records for 2010-04-14
2010-04-13 April 2010 2010-04-15

Data Records for Wednesday, 14 April 2010

Time	Temp	Chill	HIndex	Humid	Dewpt	 Wind 	HiWind	WindDir	Rain 	Barom 
-----	----	-----	------	-----	-----	------	------	-------	-----	----- 
00:00	46.0	46.0	46.0	58	32.1	3	7	112	0.00	30.441 
00:05	45.8	45.8	45.8	58	31.9	2	6	90	0.00	30.441 
00:10	45.8	45.8	45.8	58	31.9	3	9	90	0.00	30.441 
00:15	45.7	45.7	45.7	58	31.8	2	5	90	0.00	30.437 
00:20	45.7	45.7	45.7	58	31.8	3	6	90	0.00	30.437 
00:25	45.7	45.7	45.7	58	31.8	2	6	90	0.00	30.437 
00:30	45.7	45.7	45.7	58	31.8	3	9	112	0.00	30.437 
00:35	45.7	45.7	45.7	57	31.3	3	6	90	0.00	30.437 
00:40	45.7	45.7	45.7	57	31.3	3	6	90	0.00	30.437 
00:45	45.7	45.7	45.7	57	31.3	3	7	90	0.00	30.436 
00:50	45.7	45.7	45.7	58	31.8	3	7	112	0.00	30.436 
00:55	45.7	45.7	45.7	58	31.8	3	7	90	0.00	30.436 
01:00	45.5	45.5	45.5	58	31.6	2	6	112	0.00	30.437 
01:05	45.4	45.4	45.4	59	31.9	2	5	112	0.00	30.437 
01:10	45.2	45.2	45.2	59	31.7	2	7	90	0.00	30.437 
01:15	45.1	45.1	45.1	60	32.1	2	4	135	0.00	30.438 
01:20	44.9	44.9	44.9	60	31.9	2	6	90	0.00	30.438 
01:25	44.8	44.8	44.8	60	31.8	2	4	90	0.00	30.438 
01:30	44.8	44.8	44.8	61	32.2	2	6	112	0.00	30.438 
01:35	44.6	44.6	44.6	61	32.0	2	4	112	0.00	30.438 
01:40	44.6	44.6	44.6	61	32.0	2	4	90	0.00	30.438 
01:45	44.6	44.6	44.6	62	32.4	1	3	90	0.00	30.436 
01:50	44.5	44.5	44.5	62	32.3	2	6	90	0.00	30.436 
01:55	44.5	44.5	44.5	62	32.3	1	4	112	0.00	30.436 
02:00	44.5	44.5	44.5	62	32.3	2	4	112	0.00	30.435 
02:05	44.3	44.3	44.3	62	32.1	1	4	90	0.00	30.435 
02:10	44.3	44.3	44.3	63	32.5	1	2	90	0.00	30.435 
02:15	44.2	44.2	44.2	63	32.4	1	3	90	0.00	30.434 
02:20	44.1	44.1	44.1	64	32.7	1	3	90	0.00	30.434 
02:25	44.1	44.1	44.1	64	32.7	0	2	90	0.00	30.434 
02:30	43.9	43.9	43.9	64	32.5	1	3	90	0.00	30.432 
02:35	43.9	43.9	43.9	65	32.9	0	2	90	0.00	30.432 
02:40	43.8	43.8	43.8	65	32.8	0	2	90	0.00	30.432 
02:45	43.6	43.6	43.6	65	32.6	0	2	90	0.00	30.431 
02:50	43.5	43.5	43.5	66	32.9	1	3	90	0.00	30.431 
02:55	43.3	43.3	43.3	66	32.7	1	2	90	0.00	30.431 
03:00	43.3	43.3	43.3	66	32.7	1	3	90	0.00	30.431 
03:05	43.3	43.3	43.3	66	32.7	1	2	90	0.00	30.431 
03:10	43.3	43.3	43.3	66	32.7	1	4	90	0.00	30.431 
03:15	43.3	43.3	43.3	66	32.7	1	3	90	0.00	30.427 
03:20	43.3	43.3	43.3	66	32.7	1	3	90	0.00	30.427 
03:25	43.3	43.3	43.3	66	32.7	0	2	90	0.00	30.427 
03:30	43.2	43.2	43.2	67	33.0	0	3	90	0.00	30.426 
03:35	43.2	43.2	43.2	67	33.0	1	2	90	0.00	30.426 
03:40	43.1	43.1	43.1	67	32.9	0	2	90	0.00	30.426 
03:45	43.1	43.1	43.1	68	33.3	0	2	90	0.00	30.430 
03:50	42.9	42.9	42.9	68	33.1	0	2	90	0.00	30.430 
03:55	42.8	42.8	42.8	69	33.3	0	1	90	0.00	30.430 
04:00	42.5	42.5	42.5	70	33.4	0	2	90	0.00	30.431 
04:05	42.5	42.5	42.5	70	33.4	0	2	90	0.00	30.431 
04:10	42.3	42.3	42.3	70	33.2	1	2	90	0.00	30.431 
04:15	42.2	42.2	42.2	70	33.1	0	2	90	0.00	30.433 
04:20	42.2	42.2	42.2	70	33.1	1	4	90	0.00	30.433 
04:25	42.2	42.2	42.2	70	33.1	1	3	90	0.00	30.433 
04:30	42.1	42.1	42.1	70	33.0	1	2	90	0.00	30.434 
04:35	42.1	42.1	42.1	70	33.0	1	3	90	0.00	30.434 
04:40	42.1	42.1	42.1	70	33.0	1	3	90	0.00	30.434 
04:45	41.9	41.9	41.9	71	33.2	0	1	112	0.00	30.442 
04:50	41.8	41.8	41.8	71	33.1	0	2	112	0.00	30.442 
04:55	41.8	41.8	41.8	71	33.1	0	2	112	0.00	30.442 
05:00	41.6	41.6	41.6	71	32.9	0	2	112	0.00	30.440 
05:05	41.5	41.5	41.5	72	33.2	0	1	112	0.00	30.440 
05:10	41.5	41.5	41.5	72	33.2	0	1	112	0.00	30.440 
05:15	41.3	41.3	41.3	72	33.0	0	2	112	0.00	30.448 
05:20	41.2	41.2	41.2	72	32.9	0	2	112	0.00	30.448 
05:25	41.2	41.2	41.2	73	33.2	0	2	112	0.00	30.448 
05:30	41.2	41.2	41.2	73	33.2	0	2	112	0.00	30.449 
05:35	41.2	41.2	41.2	73	33.2	0	2	112	0.00	30.449 
05:40	41.1	41.1	41.1	73	33.1	0	2	112	0.00	30.449 
05:45	41.1	41.1	41.1	73	33.1	0	2	112	0.00	30.450 
05:50	41.1	41.1	41.1	74	33.5	0	2	112	0.00	30.450 
05:55	41.1	41.1	41.1	74	33.5	0	1	112	0.00	30.450 
06:00	40.9	40.9	40.9	75	33.6	0	3	112	0.00	30.450 
06:05	40.9	40.9	40.9	75	33.6	0	2	112	0.00	30.450 
06:10	40.9	40.9	40.9	75	33.6	0	2	112	0.00	30.450 
06:15	40.9	40.9	40.9	75	33.6	0	1	112	0.00	30.454 
06:20	40.8	40.8	40.8	76	33.8	0	1	112	0.00	30.454 
06:25	40.8	40.8	40.8	76	33.8	0	3	112	0.00	30.454 
06:30	40.8	40.8	40.8	76	33.8	0	1	112	0.00	30.458 
06:35	40.8	40.8	40.8	76	33.8	0	1	112	0.00	30.458 
06:40	40.9	40.9	40.9	76	33.9	0	2	112	0.00	30.458 
06:45	40.9	40.9	40.9	76	33.9	1	2	112	0.00	30.459 
06:50	41.1	41.1	41.1	76	34.1	1	4	112	0.00	30.459 
06:55	41.1	41.1	41.1	76	34.1	1	3	112	0.00	30.459 
07:00	41.1	41.1	41.1	76	34.1	0	2	112	0.00	30.466 
07:05	41.1	41.1	41.1	76	34.1	0	1	112	0.00	30.466 
07:10	41.1	41.1	41.1	77	34.4	0	2	112	0.00	30.466 
07:15	41.1	41.1	41.1	77	34.4	0	2	112	0.00	30.475 
07:20	41.1	41.1	41.1	77	34.4	1	3	112	0.00	30.475 
07:25	41.2	41.2	41.2	77	34.5	0	2	112	0.00	30.475 
07:30	41.2	41.2	41.2	77	34.5	0	2	112	0.00	30.481 
07:35	41.3	41.3	41.3	77	34.6	1	3	90	0.00	30.481 
07:40	41.5	41.5	41.5	77	34.8	1	2	90	0.00	30.481 
07:45	41.6	41.6	41.6	77	34.9	1	3	90	0.00	30.483 
07:50	41.9	41.9	41.9	77	35.2	1	4	90	0.00	30.483 
07:55	42.2	42.2	42.2	77	35.5	1	4	90	0.00	30.483 
08:00	42.5	42.5	42.5	77	35.8	1	4	90	0.00	30.482 
08:05	42.9	42.9	42.9	76	35.9	1	2	90	0.00	30.482 
08:10	43.5	43.5	43.5	76	36.4	1	4	90	0.00	30.482 
08:15	43.9	43.9	43.9	75	36.5	2	6	90	0.00	30.487 
08:20	44.5	44.5	44.5	74	36.7	2	4	112	0.00	30.487 
08:25	45.1	45.1	45.1	73	37.0	2	5	90	0.00	30.487 
08:30	45.7	45.7	45.7	73	37.5	2	4	68	0.00	30.492 
08:35	46.1	46.1	46.1	73	37.9	2	6	90	0.00	30.492 
08:40	46.7	46.7	46.7	72	38.2	2	5	112	0.00	30.492 
08:45	47.3	47.3	47.3	70	38.0	3	5	112	0.00	30.493 
08:50	47.7	47.7	47.7	69	38.0	2	6	90	0.00	30.493 
08:55	48.0	46.6	48.0	69	38.3	4	7	90	0.00	30.493 
09:00	48.2	46.8	48.2	69	38.5	4	7	90	0.00	30.497 
09:05	48.5	48.5	48.5	69	38.8	3	7	90	0.00	30.497 
09:10	48.9	48.9	48.9	69	39.2	2	6	112	0.00	30.497 
09:15	49.5	49.5	49.5	68	39.4	2	6	112	0.00	30.502 
09:20	49.8	49.8	49.8	68	39.7	2	5	112	0.00	30.502 
09:25	50.1	50.1	50.1	66	39.2	3	9	90	0.00	30.502 
09:30	50.4	50.4	50.4	66	39.5	3	6	112	0.00	30.500 
09:35	50.7	50.7	50.7	65	39.4	4	9	112	0.00	30.500 
09:40	51.1	51.1	51.1	65	39.7	3	6	112	0.00	30.500 
09:45	51.7	51.7	51.7	63	39.5	2	5	112	0.00	30.498 
09:50	52.3	52.3	52.3	62	39.7	2	7	112	0.00	30.498 
09:55	52.8	52.8	52.8	61	39.7	3	9	90	0.00	30.498 
10:00	53.2	53.2	53.2	59	39.2	3	5	112	0.00	30.495 
10:05	53.8	53.8	53.8	58	39.4	3	6	90	0.00	30.495 
10:10	54.2	54.2	54.2	59	40.2	2	5	112	0.00	30.495 
10:15	54.8	54.8	54.8	56	39.4	2	4	112	0.00	30.494 
10:20	55.7	55.7	55.7	56	40.2	2	7	112	0.00	30.494 
10:25	55.9	55.9	55.9	55	40.0	3	7	90	0.00	30.494 
10:30	56.3	56.3	56.3	52	38.9	2	7	90	0.00	30.491 
10:35	57.0	57.0	57.0	52	39.5	2	10	90	0.00	30.491 
10:40	57.2	57.2	57.2	52	39.7	4	7	112	0.00	30.491 
10:45	57.3	57.3	57.3	51	39.3	3	9	90	0.00	30.489 
10:50	58.0	58.0	58.0	52	40.5	3	7	112	0.00	30.489 
10:55	58.7	58.7	58.7	50	40.1	3	7	90	0.00	30.489 
11:00	59.0	59.0	59.0	49	39.9	3	6	112	0.00	30.488 
11:05	59.3	59.3	59.3	49	40.1	3	6	90	0.00	30.488 
11:10	59.6	59.6	59.6	47	39.3	3	9	90	0.00	30.488 
11:15	60.4	60.4	60.4	47	40.1	2	6	90	0.00	30.482 
11:20	61.2	61.2	61.2	43	38.5	2	4	90	0.00	30.482 
11:25	61.6	61.6	61.6	45	40.0	2	6	135	0.00	30.482 
11:30	62.1	62.1	62.1	45	40.5	2	5	90	0.00	30.474 
11:35	62.6	62.6	62.6	43	39.8	2	5	90	0.00	30.474 
11:40	63.2	63.2	63.2	43	40.3	2	9	112	0.00	30.474 
11:45	63.4	63.4	63.4	41	39.3	3	7	90	0.00	30.472 
11:50	63.5	63.5	63.5	42	40.0	3	9	112	0.00	30.472 
11:55	63.5	63.5	63.5	42	40.0	2	6	112	0.00	30.472 
12:00	64.2	64.2	64.2	42	40.6	2	5	90	0.00	30.466 
12:05	64.7	64.7	64.7	43	41.7	2	5	90	0.00	30.466 
12:10	65.3	65.3	65.3	39	39.7	2	5	90	0.00	30.466 
12:15	65.5	65.5	65.5	38	39.2	2	6	90	0.00	30.456 
12:20	65.3	65.3	65.3	37	38.4	4	7	112	0.00	30.456 
12:25	65.6	65.6	65.6	39	40.0	2	4	90	0.00	30.456 
12:30	66.3	66.3	66.3	38	39.9	2	6	90	0.00	30.452 
12:35	66.4	66.4	66.4	38	40.0	3	9	90	0.00	30.452 
12:40	66.9	66.9	66.9	36	39.1	2	7	112	0.00	30.452 
12:45	67.3	67.3	67.3	36	39.4	2	5	112	0.00	30.449 
12:50	67.8	67.8	67.8	35	39.1	2	6	90	0.00	30.449 
12:55	67.8	67.8	67.8	35	39.1	3	9	90	0.00	30.449 
13:00	67.6	67.6	67.6	36	39.7	3	7	90	0.00	30.439 
13:05	67.6	67.6	67.6	35	39.0	2	5	112	0.00	30.439 
13:10	67.9	67.9	67.9	38	41.3	2	6	112	0.00	30.439 
13:15	68.6	68.6	68.6	35	39.8	2	6	90	0.00	30.437 
13:20	68.6	68.6	68.6	35	39.8	3	7	90	0.00	30.437 
13:25	68.6	68.6	68.6	39	42.6	3	6	112	0.00	30.437 
13:30	68.8	68.8	68.8	38	42.1	2	7	90	0.00	30.427 
13:35	69.4	69.4	69.4	36	41.3	1	4	112	0.00	30.427 
13:40	70.1	70.1	70.1	33	39.7	2	6	90	0.00	30.427 
13:45	70.4	70.4	70.4	36	42.2	2	5	90	0.00	30.420 
13:50	70.6	70.6	70.6	37	43.1	3	7	90	0.00	30.420 
13:55	70.8	70.8	70.8	37	43.2	3	6	90	0.00	30.420 
14:00	70.8	70.8	70.8	35	41.8	2	5	112	0.00	30.417 
14:05	70.9	70.9	70.9	33	40.3	2	6	90	0.00	30.417 
14:10	71.3	71.3	71.3	33	40.7	1	5	112	0.00	30.417 
14:15	72.0	72.0	72.0	33	41.3	1	5	90	0.00	30.417 
14:20	72.1	72.1	72.1	33	41.4	2	7	112	0.00	30.417 
14:25	72.1	72.1	72.1	32	40.6	1	4	112	0.00	30.417 
14:30	72.5	72.5	72.5	34	42.5	2	5	112	0.00	30.414 
14:35	72.1	72.1	72.1	32	40.6	3	6	90	0.00	30.414 
14:40	72.1	72.1	72.1	33	41.4	2	4	90	0.00	30.414 
14:45	72.5	72.5	72.5	31	40.1	2	4	112	0.00	30.407 
14:50	72.7	72.7	72.7	35	43.5	2	3	112	0.00	30.407 
14:55	72.8	72.8	72.8	32	41.2	2	5	112	0.00	30.407 
15:00	72.8	72.8	72.8	33	42.0	2	5	112	0.00	30.403 
15:05	72.7	72.7	72.7	34	42.7	3	6	112	0.00	30.403 
15:10	72.8	72.8	72.8	33	42.0	2	7	112	0.00	30.403 
15:15	73.2	73.2	73.2	34	43.1	1	3	68	0.00	30.401 
15:20	73.3	73.3	73.3	33	42.4	1	3	135	0.00	30.401 
15:25	73.7	73.7	73.7	35	44.3	2	4	90	0.00	30.401 
15:30	73.9	73.9	73.9	33	43.0	2	5	90	0.00	30.394 
15:35	74.0	74.0	74.0	36	45.3	1	5	90	0.00	30.394 
15:40	74.2	74.2	74.2	32	42.4	1	4	90	0.00	30.394 
15:45	74.4	74.4	74.4	34	44.2	2	6	112	0.00	30.387 
15:50	74.4	74.4	74.4	32	42.6	1	6	90	0.00	30.387 
15:55	74.6	74.6	74.6	32	42.8	1	5	112	0.00	30.387 
16:00	74.7	74.7	74.7	33	43.7	2	5	135	0.00	30.378 
16:05	74.6	74.6	74.6	34	44.4	2	5	90	0.00	30.378 
16:10	74.7	74.7	74.7	35	45.2	1	4	112	0.00	30.378 
16:15	74.6	74.6	74.6	31	42.0	2	6	112	0.00	30.371 
16:20	74.6	74.6	74.6	33	43.6	2	5	90	0.00	30.371 
16:25	74.7	74.7	74.7	32	42.9	1	4	90	0.00	30.371 
16:30	74.9	74.9	74.9	34	44.6	2	5	112	0.00	30.370 
16:35	75.1	75.1	77.1	32	43.2	1	4	112	0.00	30.370 
16:40	75.3	75.3	77.2	32	43.4	1	3	90	0.00	30.370 
16:45	75.3	75.3	77.4	35	45.7	1	4	112	0.00	30.366 
16:50	75.3	75.3	77.2	33	44.2	1	4	112	0.00	30.366 
16:55	75.3	75.3	77.1	31	42.6	1	3	112	0.00	30.366 
17:00	75.3	75.3	77.2	33	44.2	1	3	112	0.00	30.361 
17:05	75.3	75.3	77.3	34	45.0	1	4	90	0.00	30.361 
17:10	75.3	75.3	77.3	34	45.0	1	5	270	0.00	30.361 
17:15	75.3	75.3	77.4	35	45.7	1	3	248	0.00	30.357 
17:20	75.3	75.3	77.4	35	45.7	0	2	225	0.00	30.357 
17:25	75.6	75.6	77.4	34	45.2	0	2	225	0.00	30.357 
17:30	75.6	75.6	77.3	33	44.5	1	3	112	0.00	30.354 
17:35	75.4	75.4	77.3	33	44.3	1	3	112	0.00	30.354 
17:40	75.3	75.3	77.2	33	44.2	1	4	112	0.00	30.354 
17:45	75.3	75.3	77.4	36	46.5	1	3	135	0.00	30.349 
17:50	75.3	75.3	77.4	36	46.5	0	2	135	0.00	30.349 
17:55	75.4	75.4	77.3	34	45.1	0	2	135	0.00	30.349 
18:00	75.3	75.3	77.2	32	43.4	1	5	90	0.00	30.344 
18:05	75.3	75.3	77.3	34	45.0	0	3	90	0.00	30.344 
18:10	75.1	75.1	77.2	34	44.8	1	4	90	0.00	30.344 
18:15	74.9	74.9	74.9	35	45.4	1	3	90	0.00	30.341 
18:20	74.9	74.9	74.9	34	44.6	1	3	112	0.00	30.341 
18:25	74.7	74.7	74.7	34	44.4	0	2	112	0.00	30.341 
18:30	74.6	74.6	74.6	35	45.1	1	4	112	0.00	30.338 
18:35	74.4	74.4	74.4	35	44.9	2	5	112	0.00	30.338 
18:40	74.0	74.0	74.0	35	44.6	2	4	112	0.00	30.338 
18:45	74.0	74.0	74.0	36	45.3	0	2	112	0.00	30.339 
18:50	74.0	74.0	74.0	35	44.6	0	2	112	0.00	30.339 
18:55	74.0	74.0	74.0	35	44.6	1	2	135	0.00	30.339 
19:00	74.0	74.0	74.0	35	44.6	1	3	112	0.00	30.338 
19:05	73.9	73.9	73.9	36	45.2	0	4	112	0.00	30.338 
19:10	73.9	73.9	73.9	36	45.2	0	3	112	0.00	30.338 
19:15	73.7	73.7	73.7	36	45.1	0	2	135	0.00	30.335 
19:20	73.5	73.5	73.5	37	45.6	0	2	158	0.00	30.335 
19:25	73.3	73.3	73.3	38	46.1	0	1	158	0.00	30.335 
19:30	73.2	73.2	73.2	39	46.7	0	1	158	0.00	30.330 
19:35	72.8	72.8	72.8	39	46.4	0	2	158	0.00	30.330 
19:40	72.5	72.5	72.5	39	46.1	0	1	158	0.00	30.330 
19:45	72.1	72.1	72.1	41	47.1	0	1	158	0.00	30.326 
19:50	71.8	71.8	71.8	41	46.8	0	0	---	0.00	30.326 
19:55	71.5	71.5	71.5	42	47.2	0	1	158	0.00	30.326 
20:00	70.9	70.9	70.9	43	47.3	0	0	---	0.00	30.326 
20:05	70.6	70.6	70.6	43	47.0	0	0	---	0.00	30.326 
20:10	70.1	70.1	70.1	45	47.8	0	0	---	0.00	30.326 
20:15	69.4	69.4	69.4	44	46.5	0	0	---	0.00	30.324 
20:20	68.9	68.9	68.9	45	46.7	0	0	---	0.00	30.324 
20:25	68.4	68.4	68.4	46	46.8	0	0	---	0.00	30.324 
20:30	67.9	67.9	67.9	46	46.3	0	0	---	0.00	30.326 
20:35	67.3	67.3	67.3	47	46.4	0	0	---	0.00	30.326 
20:40	66.8	66.8	66.8	48	46.5	0	0	---	0.00	30.326 
20:45	66.4	66.4	66.4	49	46.7	0	0	---	0.00	30.327 
20:50	66.0	66.0	66.0	50	46.8	0	0	---	0.00	30.327 
20:55	65.5	65.5	65.5	50	46.4	0	0	---	0.00	30.327 
21:00	65.2	65.2	65.2	51	46.6	0	1	158	0.00	30.329 
21:05	64.8	64.8	64.8	51	46.2	0	0	---	0.00	30.329 
21:10	64.7	64.7	64.7	51	46.1	0	0	---	0.00	30.329 
21:15	64.3	64.3	64.3	51	45.8	0	0	---	0.00	30.324 
21:20	64.0	64.0	64.0	52	46.0	0	0	---	0.00	30.324 
21:25	63.7	63.7	63.7	53	46.2	0	0	---	0.00	30.324 
21:30	63.4	63.4	63.4	53	46.0	0	0	---	0.00	30.327 
21:35	62.9	62.9	62.9	54	46.0	0	0	---	0.00	30.327 
21:40	62.6	62.6	62.6	54	45.7	0	0	---	0.00	30.327 
21:45	62.3	62.3	62.3	55	45.9	0	0	---	0.00	30.328 
21:50	62.0	62.0	62.0	55	45.6	0	0	---	0.00	30.328 
21:55	61.6	61.6	61.6	56	45.7	0	0	---	0.00	30.328 
22:00	61.5	61.5	61.5	57	46.1	0	0	---	0.00	30.327 
22:05	61.2	61.2	61.2	58	46.3	0	0	---	0.00	30.327 
22:10	60.9	60.9	60.9	59	46.5	0	0	---	0.00	30.327 
22:15	60.5	60.5	60.5	60	46.5	0	0	---	0.00	30.321 
22:20	60.1	60.1	60.1	60	46.2	0	0	---	0.00	30.321 
22:25	59.9	59.9	59.9	61	46.4	0	0	---	0.00	30.321 
22:30	59.8	59.8	59.8	61	46.3	0	0	---	0.00	30.320 
22:35	59.6	59.6	59.6	61	46.1	0	0	---	0.00	30.320 
22:40	59.5	59.5	59.5	62	46.5	0	0	---	0.00	30.320 
22:45	59.3	59.3	59.3	62	46.3	0	0	---	0.00	30.319 
22:50	59.2	59.2	59.2	62	46.2	0	0	---	0.00	30.319 
22:55	59.0	59.0	59.0	62	46.0	0	0	---	0.00	30.319 
23:00	58.9	58.9	58.9	63	46.3	0	0	---	0.00	30.319 
23:05	58.6	58.6	58.6	64	46.5	0	0	---	0.00	30.319 
23:10	58.4	58.4	58.4	64	46.3	0	0	---	0.00	30.319 
23:15	58.1	58.1	58.1	65	46.4	0	0	---	0.00	30.315 
23:20	58.0	58.0	58.0	65	46.3	0	0	---	0.00	30.315 
23:25	57.6	57.6	57.6	65	45.9	0	0	---	0.00	30.315 
23:30	57.3	57.3	57.3	67	46.4	0	0	---	0.00	30.311 
23:35	57.2	57.2	57.2	68	46.7	0	0	---	0.00	30.311 
23:40	56.9	56.9	56.9	68	46.4	0	0	---	0.00	30.311 
23:45	56.7	56.7	56.7	68	46.3	0	0	---	0.00	30.311 
23:50	56.5	56.5	56.5	68	46.1	0	0	---	0.00	30.311 
23:55	56.3	56.3	56.3	69	46.3	0	0	---	0.00	30.311 

CoCoRaHS
IN-AL-39
A2 Web Hosting
Creative Commons License
GoDaddy
search engine by freefind advanced

loaded 2018-11-17 05:46:38 • last modified 2010-11-18 10:43:29
Privacy PolicyDisclaimer
• wx.awcolley.com is powered by PmWiki v.2002016 •
• all content (unless otherwise noted) © 2018 A W Colley